Time;durP1;ratioP1;P1;durP2;ratioP2;P2;SDS_P1;SDS_P2;PMS_P1;PMS_P2;Temp;Humidity;BMP_temperature;BMP_pressure;BME280_temperature;BME280_humidity;BME280_pressure;Samples;Min_cycle;Max_cycle;Signal;HPM_P1;HPM_P2
2021/09/02 00:00:52;;;;;;;5.07;3.13;;;8.20;93.70;;;;;;2106860;28;20720;-63
2021/09/02 00:01:53;;;;;;;4.43;2.40;;;8.20;93.60;;;;;;2106991;28;20176;-62
2021/09/02 00:02:53;;;;;;;5.80;2.87;;;8.20;93.60;;;;;;2106919;28;20549;-63
2021/09/02 00:03:54;;;;;;;4.10;3.27;;;8.20;93.60;;;;;;2106021;28;20248;-63
2021/09/02 00:04:55;;;;;;;5.25;2.90;;;8.20;93.50;;;;;;2105852;28;20179;-63
2021/09/02 00:05:56;;;;;;;4.57;3.03;;;8.20;93.60;;;;;;2106926;28;20183;-63
2021/09/02 00:06:57;;;;;;;3.07;2.63;;;8.20;93.70;;;;;;2106826;28;20605;-63
2021/09/02 00:07:58;;;;;;;3.42;2.50;;;8.10;93.70;;;;;;2106337;28;20758;-63
2021/09/02 00:08:59;;;;;;;4.30;2.60;;;8.10;93.70;;;;;;2106039;28;20210;-62
2021/09/02 00:09:59;;;;;;;3.13;2.60;;;8.10;93.60;;;;;;2106903;28;20249;-63
2021/09/02 00:11:00;;;;;;;6.00;3.10;;;8.10;93.60;;;;;;2106957;28;20194;-62
2021/09/02 00:12:01;;;;;;;4.20;2.60;;;8.10;93.60;;;;;;2106794;28;20179;-62
2021/09/02 00:13:02;;;;;;;4.95;3.28;;;8.00;93.60;;;;;;2106968;28;20232;-63
2021/09/02 00:14:03;;;;;;;4.73;2.77;;;8.00;93.70;;;;;;2106853;28;20171;-61
2021/09/02 00:15:07;;;;;;;3.70;2.57;;;8.00;93.70;;;;;;2106972;28;20175;-62
2021/09/02 00:16:08;;;;;;;5.13;3.17;;;8.00;93.70;;;;;;2106727;28;20190;-62
2021/09/02 00:17:09;;;;;;;5.18;2.80;;;8.00;93.80;;;;;;2106858;28;20174;-63
2021/09/02 00:18:09;;;;;;;5.37;3.10;;;8.00;93.90;;;;;;2106736;28;20217;-62
2021/09/02 00:19:10;;;;;;;5.23;3.20;;;8.00;94.00;;;;;;2106595;28;20183;-62
2021/09/02 00:20:12;;;;;;;4.37;2.53;;;8.00;94.00;;;;;;2106925;28;20172;-61
2021/09/02 00:21:13;;;;;;;4.50;2.88;;;8.10;94.00;;;;;;2106660;28;20683;-62
2021/09/02 00:22:13;;;;;;;3.00;2.13;;;8.00;94.00;;;;;;2106810;28;20183;-61
2021/09/02 00:23:14;;;;;;;4.30;2.77;;;8.00;94.00;;;;;;2106902;28;20250;-63
2021/09/02 00:24:15;;;;;;;4.78;2.58;;;8.00;94.10;;;;;;2106754;28;20805;-61
2021/09/02 00:25:16;;;;;;;4.00;3.20;;;8.00;94.00;;;;;;2106194;28;20266;-62
2021/09/02 00:26:17;;;;;;;4.00;2.53;;;8.00;94.10;;;;;;2106325;28;20175;-63
2021/09/02 00:27:17;;;;;;;4.23;2.70;;;8.00;94.20;;;;;;2106832;28;20227;-61
2021/09/02 00:28:19;;;;;;;5.47;3.60;;;8.00;94.10;;;;;;2106830;28;20665;-62
2021/09/02 00:29:20;;;;;;;3.67;2.72;;;8.00;94.10;;;;;;2106593;28;20642;-63
2021/09/02 00:30:22;;;;;;;4.77;3.40;;;8.00;94.20;;;;;;2106718;28;20203;-63
2021/09/02 00:31:22;;;;;;;2.92;2.50;;;8.00;94.40;;;;;;2106095;28;20210;-62
2021/09/02 00:32:23;;;;;;;3.63;2.20;;;8.00;94.10;;;;;;2106129;28;20620;-62
2021/09/02 00:33:24;;;;;;;4.53;2.90;;;8.00;94.30;;;;;;2106802;28;20237;-62
2021/09/02 00:34:25;;;;;;;2.77;2.37;;;8.00;94.30;;;;;;2106779;28;20576;-62
2021/09/02 00:35:25;;;;;;;6.93;3.77;;;7.90;94.20;;;;;;2106902;28;20175;-63
2021/09/02 00:36:26;;;;;;;4.57;3.13;;;7.90;94.20;;;;;;2106744;28;20708;-62
2021/09/02 00:37:27;;;;;;;3.63;2.80;;;7.90;94.20;;;;;;2106154;28;20175;-63
2021/09/02 00:38:28;;;;;;;2.97;2.07;;;7.90;94.20;;;;;;2106098;28;20214;-62
2021/09/02 00:39:28;;;;;;;4.47;2.97;;;7.90;94.10;;;;;;2106631;28;20262;-63
2021/09/02 00:40:29;;;;;;;3.37;2.60;;;7.90;93.90;;;;;;2106891;28;20175;-63
2021/09/02 00:41:30;;;;;;;4.37;2.03;;;7.80;93.90;;;;;;2106640;28;20190;-62
2021/09/02 00:42:31;;;;;;;4.20;2.67;;;7.80;93.80;;;;;;2106596;28;20217;-63
2021/09/02 00:43:42;;;;;;;3.47;2.40;;;7.80;93.80;;;;;;2106892;28;20174;-63
2021/09/02 00:44:45;;;;;;;4.07;2.63;;;7.80;93.80;;;;;;2106831;28;20171;-63
2021/09/02 00:45:46;;;;;;;5.00;2.40;;;7.80;93.80;;;;;;2106471;28;20201;-62
2021/09/02 00:46:47;;;;;;;4.23;3.40;;;7.80;93.90;;;;;;2106494;28;20171;-63
2021/09/02 00:47:47;;;;;;;4.67;2.43;;;7.80;93.90;;;;;;2106776;28;20784;-63
2021/09/02 00:48:49;;;;;;;3.63;2.40;;;7.80;93.90;;;;;;2106257;28;20179;-63
2021/09/02 00:49:50;;;;;;;2.92;2.20;;;7.80;93.80;;;;;;2106139;28;20176;-62
2021/09/02 00:50:51;;;;;;;4.90;2.80;;;7.80;93.80;;;;;;2105837;28;20197;-63
2021/09/02 00:51:52;;;;;;;4.72;2.55;;;7.70;93.80;;;;;;2106634;28;20182;-63
2021/09/02 00:52:52;;;;;;;3.67;2.70;;;7.70;93.80;;;;;;2106703;28;20171;-63
2021/09/02 00:53:56;;;;;;;6.20;2.73;;;7.70;93.70;;;;;;2106613;28;20180;-63
2021/09/02 00:55:07;;;;;;;3.90;2.95;;;7.70;93.80;;;;;;2106560;28;20186;-61
2021/09/02 00:56:08;;;;;;;4.65;2.70;;;7.70;93.80;;;;;;2106610;28;20684;-63
2021/09/02 00:57:12;;;;;;;3.50;2.87;;;7.70;93.80;;;;;;2106635;28;20183;-60
2021/09/02 00:58:13;;;;;;;2.88;2.40;;;7.60;93.80;;;;;;2106536;28;20587;-63
2021/09/02 00:59:14;;;;;;;3.33;2.70;;;7.60;93.80;;;;;;2106338;28;20174;-63
2021/09/02 01:00:17;;;;;;;4.73;2.20;;;7.60;93.80;;;;;;2106604;28;20175;-62
2021/09/02 01:01:18;;;;;;;2.97;2.45;;;7.50;93.80;;;;;;2106458;28;20194;-63
2021/09/02 01:02:20;;;;;;;2.73;2.10;;;7.50;93.80;;;;;;2106602;28;20201;-63
2021/09/02 01:03:21;;;;;;;4.35;2.92;;;7.50;93.80;;;;;;2106478;28;20167;-63
2021/09/02 01:04:23;;;;;;;4.67;2.87;;;7.50;93.80;;;;;;2106605;28;20187;-63
2021/09/02 01:05:24;;;;;;;4.95;2.88;;;7.50;93.80;;;;;;2106548;28;20172;-63
2021/09/02 01:06:24;;;;;;;2.93;2.43;;;7.50;93.90;;;;;;2105948;28;20213;-62
2021/09/02 01:07:31;;;;;;;5.40;3.10;;;7.50;93.90;;;;;;2106019;28;20462;-63
2021/09/02 01:08:31;;;;;;;4.70;2.83;;;7.50;94.00;;;;;;2106084;28;20517;-63
2021/09/02 01:09:34;;;;;;;5.17;2.63;;;7.50;94.10;;;;;;2105676;28;20231;-63
2021/09/02 01:10:35;;;;;;;5.20;3.17;;;7.40;94.20;;;;;;2105819;28;20649;-63
2021/09/02 01:11:35;;;;;;;3.43;2.63;;;7.40;94.40;;;;;;2097363;28;20208;-63
2021/09/02 01:12:40;;;;;;;3.37;2.57;;;7.40;94.50;;;;;;2106026;28;20215;-63
2021/09/02 01:13:41;;;;;;;6.45;2.72;;;7.50;94.40;;;;;;2106077;28;20171;-62
2021/09/02 01:14:42;;;;;;;3.37;2.63;;;7.50;94.50;;;;;;2105944;28;20252;-61
2021/09/02 01:15:43;;;;;;;4.30;2.73;;;7.50;94.40;;;;;;2107067;28;20199;-62
2021/09/02 01:16:55;;;;;;;4.20;2.67;;;7.50;94.40;;;;;;2108157;28;20545;-63
2021/09/02 01:17:58;;;;;;;4.90;3.38;;;7.50;94.30;;;;;;2096228;28;20317;-63
2021/09/02 01:18:59;;;;;;;3.97;2.38;;;7.50;94.40;;;;;;2099438;28;20206;-63
2021/09/02 01:20:00;;;;;;;5.13;2.43;;;7.40;94.30;;;;;;2108100;28;20179;-63
2021/09/02 01:21:01;;;;;;;5.82;3.00;;;7.40;94.20;;;;;;2108183;28;20282;-62
2021/09/02 01:22:02;;;;;;;4.47;2.97;;;7.40;94.20;;;;;;2107595;28;20180;-62
2021/09/02 01:23:04;;;;;;;4.90;2.67;;;7.40;94.10;;;;;;2107668;28;20689;-63
2021/09/02 01:24:05;;;;;;;3.25;2.88;;;7.40;94.10;;;;;;2108118;28;20232;-62
2021/09/02 01:25:11;;;;;;;3.40;2.53;;;7.40;94.10;;;;;;2108191;28;20276;-63
2021/09/02 01:26:22;;;;;;;4.97;2.80;;;7.40;94.20;;;;;;2108179;28;20162;-62
2021/09/02 01:27:26;;;;;;;4.18;2.78;;;7.40;94.20;;;;;;2108316;28;20163;-63
2021/09/02 01:28:27;;;;;;;4.03;2.78;;;7.40;94.30;;;;;;2107608;28;20217;-63
2021/09/02 01:29:27;;;;;;;3.80;3.10;;;7.40;94.30;;;;;;2107378;28;20646;-63
2021/09/02 01:30:29;;;;;;;4.57;2.83;;;7.40;94.40;;;;;;2108066;28;20178;-63
2021/09/02 01:31:30;;;;;;;3.72;2.72;;;7.40;94.40;;;;;;2107547;28;20685;-63
2021/09/02 01:32:33;;;;;;;2.93;2.50;;;7.40;94.50;;;;;;2107312;28;20194;-63
2021/09/02 01:33:33;;;;;;;4.57;3.03;;;7.40;94.70;;;;;;2107669;28;20202;-62
2021/09/02 01:34:34;;;;;;;7.43;3.23;;;7.30;94.70;;;;;;2107591;28;20657;-63
2021/09/02 01:35:35;;;;;;;4.10;2.83;;;7.30;94.70;;;;;;2108154;28;20171;-63
2021/09/02 01:36:36;;;;;;;4.33;2.87;;;7.30;94.50;;;;;;2108073;28;20179;-63
2021/09/02 01:37:41;;;;;;;4.10;3.33;;;7.30;94.40;;;;;;2108150;28;20764;-63
2021/09/02 01:38:42;;;;;;;4.63;3.08;;;7.30;94.20;;;;;;2098872;28;20222;-62
2021/09/02 01:39:43;;;;;;;3.67;2.63;;;7.30;94.20;;;;;;2099182;28;20539;-63
2021/09/02 01:40:48;;;;;;;3.97;2.10;;;7.30;94.10;;;;;;2107928;28;20187;-63
2021/09/02 01:41:49;;;;;;;4.38;2.60;;;7.30;94.10;;;;;;2108078;28;20170;-63
2021/09/02 01:42:50;;;;;;;3.77;2.77;;;7.30;94.10;;;;;;2108016;28;20175;-65
2021/09/02 01:43:51;;;;;;;3.95;2.85;;;7.30;94.40;;;;;;2108140;28;20809;-64
2021/09/02 01:44:52;;;;;;;2.87;2.00;;;7.20;93.80;;;;;;2108003;28;20186;-61
2021/09/02 01:45:52;;;;;;;4.67;3.23;;;7.20;93.90;;;;;;2108020;28;20178;-62
2021/09/02 01:46:53;;;;;;;2.37;2.07;;;7.20;93.90;;;;;;2108095;28;20175;-62
2021/09/02 01:48:02;;;;;;;3.63;2.90;;;7.20;94.10;;;;;;2107981;28;20171;-62
2021/09/02 01:49:03;;;;;;;3.92;2.83;;;7.10;94.10;;;;;;2107683;28;20620;-62
2021/09/02 01:50:13;;;;;;;5.63;2.63;;;7.10;94.20;;;;;;2107983;28;20206;-62
2021/09/02 01:51:14;;;;;;;4.13;3.40;;;7.10;94.40;;;;;;2107707;28;20237;-62
2021/09/02 01:52:15;;;;;;;6.37;3.13;;;7.10;94.60;;;;;;2108089;28;20681;-62
2021/09/02 01:53:18;;;;;;;3.83;2.43;;;7.10;94.70;;;;;;2107876;28;20429;-62
2021/09/02 01:54:19;;;;;;;3.58;2.75;;;7.10;94.60;;;;;;2107942;28;20228;-62
2021/09/02 01:55:22;;;;;;;3.73;2.63;;;7.00;94.60;;;;;;2107771;28;20187;-62
2021/09/02 01:56:23;;;;;;;3.47;2.80;;;7.00;94.50;;;;;;2107355;28;20186;-62
2021/09/02 01:57:23;;;;;;;5.07;3.23;;;7.00;94.60;;;;;;2107268;28;20183;-63
2021/09/02 01:58:24;;;;;;;6.13;3.30;;;7.00;94.70;;;;;;2107956;28;20234;-62
2021/09/02 01:59:25;;;;;;;3.10;2.53;;;7.00;94.50;;;;;;2107491;28;20171;-62
2021/09/02 02:00:25;;;;;;;3.67;2.70;;;7.00;94.40;;;;;;2107883;28;20175;-62
2021/09/02 02:01:26;;;;;;;2.93;2.50;;;7.00;94.40;;;;;;2107966;28;20738;-62
2021/09/02 02:02:27;;;;;;;5.03;2.20;;;7.00;94.40;;;;;;2107849;28;20167;-63
2021/09/02 02:03:27;;;;;;;3.40;2.67;;;7.00;94.40;;;;;;2107845;28;20228;-62
2021/09/02 02:04:28;;;;;;;3.77;2.73;;;6.90;94.30;;;;;;2107772;28;20183;-62
2021/09/02 02:05:30;;;;;;;3.27;2.40;;;6.90;94.80;;;;;;2107952;28;20191;-62
2021/09/02 02:06:30;;;;;;;4.82;2.70;;;6.90;94.30;;;;;;2107876;28;20208;-62
2021/09/02 02:07:31;;;;;;;5.70;2.67;;;6.90;94.40;;;;;;2098134;28;20188;-61
2021/09/02 02:08:32;;;;;;;6.83;2.87;;;6.90;94.50;;;;;;2099373;28;20176;-62
2021/09/02 02:09:33;;;;;;;4.43;2.67;;;6.90;94.50;;;;;;2098983;28;20180;-62
2021/09/02 02:10:34;;;;;;;3.57;2.60;;;6.90;94.60;;;;;;2099542;28;20273;-63
2021/09/02 02:11:34;;;;;;;3.70;2.00;;;6.90;94.50;;;;;;2099360;28;20206;-62
2021/09/02 02:12:35;;;;;;;4.57;2.73;;;6.90;94.50;;;;;;2098935;28;20186;-62
2021/09/02 02:13:36;;;;;;;4.57;2.73;;;6.90;94.40;;;;;;2098835;28;20184;-62
2021/09/02 02:14:37;;;;;;;3.60;2.93;;;6.90;94.40;;;;;;2099523;28;20183;-62
2021/09/02 02:15:38;;;;;;;4.82;2.45;;;6.90;94.40;;;;;;2099318;28;20176;-61
2021/09/02 02:16:39;;;;;;;3.67;2.80;;;6.90;94.50;;;;;;2099478;28;20180;-62
2021/09/02 02:17:41;;;;;;;3.63;2.93;;;6.90;94.50;;;;;;2099382;28;20176;-62
2021/09/02 02:18:42;;;;;;;4.90;2.70;;;6.90;94.50;;;;;;2099365;28;20199;-62
2021/09/02 02:19:42;;;;;;;3.13;2.43;;;6.90;94.50;;;;;;2099298;28;20172;-62
2021/09/02 02:20:43;;;;;;;4.43;3.30;;;6.90;94.30;;;;;;2099337;28;20168;-62
2021/09/02 02:21:44;;;;;;;3.50;2.63;;;6.90;94.30;;;;;;2099377;28;20856;-62
2021/09/02 02:22:46;;;;;;;3.57;2.80;;;6.90;94.20;;;;;;2099324;28;20592;-62
2021/09/02 02:23:46;;;;;;;2.53;2.30;;;6.90;94.20;;;;;;2099398;28;20221;-61
2021/09/02 02:24:47;;;;;;;2.43;2.20;;;6.90;94.30;;;;;;2099330;28;20210;-62
2021/09/02 02:25:48;;;;;;;4.00;2.40;;;6.80;94.40;;;;;;2099237;28;20255;-62
2021/09/02 02:26:48;;;;;;;4.33;2.87;;;6.80;94.40;;;;;;2099315;28;20638;-61
2021/09/02 02:27:49;;;;;;;2.57;2.37;;;6.80;94.30;;;;;;2098609;28;20237;-64
2021/09/02 02:28:50;;;;;;;3.93;2.90;;;6.80;94.30;;;;;;2099007;28;20175;-62
2021/09/02 02:29:51;;;;;;;4.80;3.13;;;6.80;94.30;;;;;;2099360;28;20207;-62
2021/09/02 02:30:51;;;;;;;3.50;3.13;;;6.80;95.00;;;;;;2099182;28;20199;-62
2021/09/02 02:31:52;;;;;;;5.70;2.97;;;6.80;94.60;;;;;;2099370;28;20564;-64
2021/09/02 02:32:53;;;;;;;4.33;2.93;;;6.80;94.80;;;;;;2099342;28;20638;-62
2021/09/02 02:33:53;;;;;;;4.67;2.67;;;6.80;94.90;;;;;;2099404;28;20175;-63
2021/09/02 02:34:54;;;;;;;4.67;2.70;;;6.80;94.80;;;;;;2099233;28;20635;-63
2021/09/02 02:35:55;;;;;;;4.17;2.80;;;6.80;94.70;;;;;;2099259;28;20270;-63
2021/09/02 02:36:56;;;;;;;4.63;3.50;;;6.80;94.60;;;;;;2099359;28;20656;-63
2021/09/02 02:37:56;;;;;;;4.37;3.20;;;6.80;94.60;;;;;;2099082;28;20606;-63
2021/09/02 02:38:57;;;;;;;4.17;3.30;;;6.80;94.70;;;;;;2099020;28;20180;-63
2021/09/02 02:39:58;;;;;;;3.20;2.67;;;6.80;94.70;;;;;;2099273;28;20210;-63
2021/09/02 02:40:59;;;;;;;5.23;3.07;;;6.80;94.70;;;;;;2098676;28;20180;-62
2021/09/02 02:41:59;;;;;;;3.13;2.83;;;6.70;94.70;;;;;;2098703;28;20670;-62
2021/09/02 02:43:02;;;;;;;7.07;2.63;;;6.80;94.70;;;;;;2099116;28;20225;-63
2021/09/02 02:44:03;;;;;;;3.42;2.65;;;6.80;94.70;;;;;;2099158;28;20179;-62
2021/09/02 02:45:05;;;;;;;4.53;3.35;;;6.80;94.60;;;;;;2099141;28;20191;-62
2021/09/02 02:46:05;;;;;;;2.65;2.45;;;6.80;94.40;;;;;;2099331;28;20187;-62
2021/09/02 02:47:08;;;;;;;4.43;2.83;;;6.80;94.20;;;;;;2099156;28;20646;-62
2021/09/02 02:48:08;;;;;;;5.70;3.03;;;6.80;94.00;;;;;;2099252;28;20556;-62
2021/09/02 02:49:09;;;;;;;3.50;2.77;;;6.80;94.00;;;;;;2098849;28;20204;-62
2021/09/02 02:50:10;;;;;;;2.73;2.30;;;6.80;94.00;;;;;;2099217;28;20656;-62
2021/09/02 02:51:11;;;;;;;4.78;3.33;;;6.70;94.00;;;;;;2098865;28;20221;-61
2021/09/02 02:52:12;;;;;;;2.97;2.30;;;6.70;94.20;;;;;;2099205;28;20179;-62
2021/09/02 02:53:13;;;;;;;6.57;3.20;;;6.70;94.30;;;;;;2099113;28;20172;-62
2021/09/02 02:54:13;;;;;;;3.53;2.70;;;6.70;94.40;;;;;;2099126;28;20180;-62
2021/09/02 02:55:14;;;;;;;4.67;3.00;;;6.70;94.30;;;;;;2099136;28;20546;-62
2021/09/02 02:56:15;;;;;;;3.23;2.90;;;6.60;94.40;;;;;;2099042;28;20207;-62
2021/09/02 02:57:15;;;;;;;3.17;2.57;;;6.60;94.40;;;;;;2098448;28;20192;-62
2021/09/02 02:58:16;;;;;;;4.23;3.20;;;6.60;94.50;;;;;;2098550;28;20227;-63
2021/09/02 02:59:17;;;;;;;3.97;2.90;;;6.60;94.50;;;;;;2098694;28;20569;-62
2021/09/02 03:00:18;;;;;;;8.10;2.50;;;6.60;94.60;;;;;;2098686;28;20182;-62
2021/09/02 03:01:19;;;;;;;5.85;3.92;;;6.60;94.70;;;;;;2098318;28;20223;-62
2021/09/02 03:02:19;;;;;;;5.50;3.20;;;6.60;94.70;;;;;;2098435;28;20228;-62
2021/09/02 03:03:20;;;;;;;2.90;2.60;;;6.60;94.90;;;;;;2098526;28;20176;-62
2021/09/02 03:04:21;;;;;;;3.27;2.87;;;6.60;94.90;;;;;;2099029;28;20749;-62
2021/09/02 03:05:22;;;;;;;5.23;3.17;;;6.50;94.80;;;;;;2099103;28;20199;-63
2021/09/02 03:06:22;;;;;;;3.33;3.03;;;6.50;94.90;;;;;;2099154;28;20180;-62
2021/09/02 03:07:23;;;;;;;3.57;2.33;;;6.50;94.80;;;;;;2099097;28;20195;-62
2021/09/02 03:08:24;;;;;;;4.23;2.80;;;6.50;94.80;;;;;;2099059;28;20176;-62
2021/09/02 03:09:24;;;;;;;2.70;2.30;;;6.50;94.80;;;;;;2098761;28;20180;-62
2021/09/02 03:10:25;;;;;;;3.10;2.37;;;6.50;94.80;;;;;;2098989;28;20277;-63
2021/09/02 03:11:26;;;;;;;3.70;2.47;;;6.40;94.70;;;;;;2099031;28;20278;-62
2021/09/02 03:12:26;;;;;;;4.13;3.07;;;6.40;94.60;;;;;;2098880;28;20177;-62
2021/09/02 03:13:27;;;;;;;4.80;2.90;;;6.40;94.50;;;;;;2099005;28;20180;-63
2021/09/02 03:14:28;;;;;;;4.70;3.00;;;6.40;94.50;;;;;;2098930;28;20168;-62
2021/09/02 03:15:30;;;;;;;3.37;2.63;;;6.40;94.50;;;;;;2098979;28;20643;-62
2021/09/02 03:16:30;;;;;;;6.10;3.58;;;6.40;94.40;;;;;;2098896;28;20199;-62
2021/09/02 03:17:31;;;;;;;3.57;2.97;;;6.40;94.50;;;;;;2098969;28;20236;-62
2021/09/02 03:18:32;;;;;;;4.73;3.13;;;6.40;94.70;;;;;;2101387;28;20195;-62
2021/09/02 03:19:33;;;;;;;5.25;2.70;;;6.30;94.70;;;;;;2098856;28;20176;-62
2021/09/02 03:20:34;;;;;;;3.73;2.10;;;6.30;94.90;;;;;;2098848;28;20635;-61
2021/09/02 03:21:35;;;;;;;4.43;3.03;;;6.30;95.00;;;;;;2098810;28;20195;-62
2021/09/02 03:22:35;;;;;;;9.70;2.93;;;6.40;95.10;;;;;;2099031;28;20172;-62
2021/09/02 03:23:36;;;;;;;16.33;2.80;;;6.40;95.10;;;;;;2098902;28;20234;-62
2021/09/02 03:24:37;;;;;;;5.17;2.97;;;6.40;95.10;;;;;;2098765;28;20210;-63
2021/09/02 03:25:38;;;;;;;4.17;2.87;;;6.30;95.00;;;;;;2098921;28;20416;-62
2021/09/02 03:26:38;;;;;;;3.83;2.83;;;6.30;94.90;;;;;;2098778;28;20658;-62
2021/09/02 03:27:40;;;;;;;5.03;3.00;;;6.30;94.90;;;;;;2098920;28;20202;-62
2021/09/02 03:28:41;;;;;;;3.17;2.53;;;6.30;94.80;;;;;;2098795;28;20262;-62
2021/09/02 03:29:41;;;;;;;3.70;2.67;;;6.30;94.70;;;;;;2098577;28;20685;-62
2021/09/02 03:30:42;;;;;;;4.33;2.83;;;6.30;94.60;;;;;;2098788;28;20201;-62
2021/09/02 03:31:43;;;;;;;5.30;2.57;;;6.30;94.60;;;;;;2098857;28;20189;-63
2021/09/02 03:32:43;;;;;;;3.73;2.13;;;6.30;94.70;;;;;;2098839;28;20642;-63
2021/09/02 03:33:44;;;;;;;5.57;3.20;;;6.30;94.60;;;;;;2098861;28;20634;-63
2021/09/02 03:34:45;;;;;;;2.93;2.23;;;6.30;94.70;;;;;;2098815;28;20175;-62
2021/09/02 03:35:45;;;;;;;5.10;2.40;;;6.20;94.70;;;;;;2098833;28;20225;-63
2021/09/02 03:36:46;;;;;;;4.20;2.83;;;6.20;94.70;;;;;;2106384;28;20206;-63
2021/09/02 03:37:47;;;;;;;4.27;2.83;;;6.20;94.60;;;;;;2106521;28;20679;-63
2021/09/02 03:38:48;;;;;;;4.90;2.63;;;6.20;94.50;;;;;;2098509;28;20211;-63
2021/09/02 03:39:48;;;;;;;5.77;2.63;;;6.20;94.50;;;;;;2098787;28;20214;-62
2021/09/02 03:40:49;;;;;;;3.07;2.40;;;6.20;94.50;;;;;;2098678;28;20171;-63
2021/09/02 03:41:50;;;;;;;4.37;3.07;;;6.20;94.50;;;;;;2098693;28;20199;-63
2021/09/02 03:42:50;;;;;;;4.70;3.37;;;6.10;94.50;;;;;;2098740;28;20713;-63
2021/09/02 03:43:51;;;;;;;4.03;2.60;;;6.10;94.60;;;;;;2098696;28;20253;-63
2021/09/02 03:44:52;;;;;;;3.20;2.70;;;6.10;94.80;;;;;;2098693;28;20186;-63
2021/09/02 03:45:52;;;;;;;3.13;2.40;;;6.10;94.80;;;;;;2098752;28;20660;-63
2021/09/02 03:46:53;;;;;;;3.97;3.07;;;6.10;94.80;;;;;;2098754;28;20175;-63
2021/09/02 03:47:54;;;;;;;4.10;2.27;;;6.10;94.80;;;;;;2098585;28;20179;-63
2021/09/02 03:48:54;;;;;;;4.77;2.87;;;6.10;94.80;;;;;;2098353;28;20245;-63
2021/09/02 03:49:55;;;;;;;3.60;2.83;;;6.10;94.90;;;;;;2097964;28;20578;-63
2021/09/02 03:50:56;;;;;;;3.13;2.30;;;6.10;95.00;;;;;;2097875;28;20191;-63
2021/09/02 03:51:56;;;;;;;3.43;2.63;;;6.10;95.00;;;;;;2098674;28;20241;-63
2021/09/02 03:52:57;;;;;;;3.13;2.67;;;6.10;95.00;;;;;;2098779;28;20662;-61
2021/09/02 03:53:58;;;;;;;2.60;2.17;;;6.10;94.80;;;;;;2098435;28;20329;-62
2021/09/02 03:54:59;;;;;;;4.22;2.55;;;6.00;94.60;;;;;;2098555;28;20266;-63
2021/09/02 03:55:59;;;;;;;5.50;3.13;;;6.00;94.40;;;;;;2098547;28;20250;-63
2021/09/02 03:57:00;;;;;;;2.07;1.90;;;6.00;94.30;;;;;;2098506;28;20184;-63
2021/09/02 03:58:01;;;;;;;4.60;2.23;;;6.00;94.10;;;;;;2098469;28;20180;-63
2021/09/02 03:59:02;;;;;;;3.20;2.53;;;6.00;94.00;;;;;;2098373;28;20186;-62
2021/09/02 04:00:06;;;;;;;3.33;2.13;;;6.00;94.00;;;;;;2098668;28;20183;-62
2021/09/02 04:01:08;;;;;;;3.22;2.25;;;6.00;94.10;;;;;;2098410;28;20248;-63
2021/09/02 04:02:08;;;;;;;3.67;2.95;;;5.90;94.20;;;;;;2098520;28;20646;-63
2021/09/02 04:03:09;;;;;;;3.30;2.73;;;5.90;94.10;;;;;;2098484;28;20178;-63
2021/09/02 04:04:10;;;;;;;2.73;2.03;;;5.90;94.10;;;;;;2098420;28;20184;-62
2021/09/02 04:05:11;;;;;;;3.30;2.47;;;5.90;94.20;;;;;;2098488;28;20186;-63
2021/09/02 04:06:12;;;;;;;3.45;2.55;;;5.90;94.10;;;;;;2098449;28;20179;-62
2021/09/02 04:07:13;;;;;;;3.77;3.00;;;5.90;94.20;;;;;;2098644;28;20192;-63
2021/09/02 04:08:13;;;;;;;3.40;2.27;;;5.90;94.30;;;;;;2098382;28;20216;-63
2021/09/02 04:09:14;;;;;;;3.83;2.23;;;5.90;94.40;;;;;;2098073;28;20175;-62
2021/09/02 04:10:15;;;;;;;3.43;2.37;;;5.80;94.50;;;;;;2098264;28;20634;-63
2021/09/02 04:11:16;;;;;;;5.67;2.57;;;5.80;94.60;;;;;;2098197;28;20693;-63
2021/09/02 04:12:16;;;;;;;6.10;2.27;;;5.80;94.70;;;;;;2098163;28;20175;-63
2021/09/02 04:13:18;;;;;;;2.97;2.60;;;5.80;94.70;;;;;;2098313;28;20694;-63
2021/09/02 04:14:19;;;;;;;3.90;2.78;;;5.80;94.80;;;;;;2098230;28;20179;-63
2021/09/02 04:15:20;;;;;;;4.43;3.00;;;5.80;94.90;;;;;;2098312;28;20210;-63
2021/09/02 04:16:20;;;;;;;8.20;3.20;;;5.80;95.00;;;;;;2098163;28;20265;-63
2021/09/02 04:17:21;;;;;;;3.33;2.67;;;5.80;94.90;;;;;;2098282;28;20180;-63
2021/09/02 04:18:22;;;;;;;3.03;2.60;;;5.80;95.00;;;;;;2098081;28;20210;-63
2021/09/02 04:19:25;;;;;;;5.40;3.20;;;5.90;95.00;;;;;;2097975;28;20183;-63
2021/09/02 04:20:26;;;;;;;5.95;3.30;;;5.90;95.00;;;;;;2098120;28;20220;-63
2021/09/02 04:21:27;;;;;;;7.50;2.97;;;5.90;95.10;;;;;;2098127;28;20195;-63
2021/09/02 04:22:28;;;;;;;2.67;2.40;;;6.00;95.20;;;;;;2098183;28;20179;-63
2021/09/02 04:23:28;;;;;;;3.23;2.77;;;6.00;95.20;;;;;;2098191;28;20178;-62
2021/09/02 04:24:29;;;;;;;3.03;2.73;;;6.00;95.40;;;;;;2097560;28;20546;-63
2021/09/02 04:25:30;;;;;;;2.93;2.57;;;5.90;95.40;;;;;;2097526;28;20259;-62
2021/09/02 04:26:31;;;;;;;4.37;2.70;;;5.90;95.40;;;;;;2098035;28;20180;-62
2021/09/02 04:27:32;;;;;;;2.70;2.40;;;5.90;95.30;;;;;;2098102;28;20417;-63
2021/09/02 04:28:32;;;;;;;2.97;2.37;;;5.90;95.20;;;;;;2098148;28;20187;-62
2021/09/02 04:29:33;;;;;;;3.53;2.97;;;5.90;95.10;;;;;;2097911;28;20178;-61
2021/09/02 04:30:34;;;;;;;4.83;3.43;;;5.90;95.00;;;;;;2098221;28;20178;-62
2021/09/02 04:31:34;;;;;;;5.17;3.23;;;5.90;94.80;;;;;;2098053;28;20195;-61
2021/09/02 04:32:35;;;;;;;3.43;2.50;;;5.90;94.70;;;;;;2098337;28;20180;-63
2021/09/02 04:33:36;;;;;;;5.90;2.90;;;5.90;94.40;;;;;;2098051;28;20185;-62
2021/09/02 04:34:39;;;;;;;3.53;3.07;;;5.90;94.30;;;;;;2097557;28;20213;-62
2021/09/02 04:35:39;;;;;;;5.55;3.40;;;5.90;94.30;;;;;;2097468;28;20182;-63
2021/09/02 04:36:40;;;;;;;6.73;3.17;;;5.80;94.30;;;;;;2098233;28;20209;-62
2021/09/02 04:37:45;;;;;;;6.50;3.77;;;5.80;94.40;;;;;;2098035;28;20182;-62
2021/09/02 04:38:45;;;;;;;4.95;2.60;;;5.80;94.90;;;;;;2098045;28;20206;-63
2021/09/02 04:39:46;;;;;;;7.33;3.10;;;5.80;95.00;;;;;;2097853;28;20778;-63
2021/09/02 04:40:48;;;;;;;4.67;3.20;;;5.80;94.60;;;;;;2097986;28;20273;-61
2021/09/02 04:41:49;;;;;;;4.78;3.28;;;5.80;94.70;;;;;;2098027;28;20570;-62
2021/09/02 04:42:49;;;;;;;4.83;2.90;;;5.80;94.70;;;;;;2098131;28;20183;-62
2021/09/02 04:43:50;;;;;;;4.83;2.93;;;5.80;94.70;;;;;;2098037;28;20745;-63
2021/09/02 04:44:51;;;;;;;2.70;2.27;;;5.80;94.60;;;;;;2096544;28;20197;-62
2021/09/02 04:45:52;;;;;;;6.10;3.03;;;5.90;94.60;;;;;;2097928;28;20215;-62
2021/09/02 04:46:52;;;;;;;3.40;3.10;;;5.90;94.60;;;;;;2098058;28;20182;-63
2021/09/02 04:47:53;;;;;;;4.17;3.00;;;5.80;94.50;;;;;;2097994;28;20178;-62
2021/09/02 04:48:54;;;;;;;2.87;2.07;;;5.90;94.60;;;;;;2097877;28;20217;-63
2021/09/02 04:49:55;;;;;;;4.70;2.70;;;5.90;94.80;;;;;;2098046;28;20182;-63
2021/09/02 04:50:56;;;;;;;3.47;3.08;;;5.80;94.90;;;;;;2097441;28;20208;-62
2021/09/02 04:51:57;;;;;;;4.37;3.27;;;5.80;94.90;;;;;;2097946;28;20180;-63
2021/09/02 04:52:57;;;;;;;5.03;3.23;;;5.80;95.00;;;;;;2099221;28;20579;-62
2021/09/02 04:53:58;;;;;;;3.90;2.67;;;5.80;94.90;;;;;;2105790;28;20269;-62
2021/09/02 04:54:59;;;;;;;4.93;3.37;;;5.80;94.90;;;;;;2106390;28;20261;-63
2021/09/02 04:55:59;;;;;;;4.37;3.37;;;5.80;94.80;;;;;;2106306;28;20634;-62
2021/09/02 04:57:00;;;;;;;6.17;3.57;;;5.80;94.80;;;;;;2106429;28;20182;-63
2021/09/02 04:58:06;;;;;;;4.30;3.20;;;5.90;94.90;;;;;;2106359;28;20186;-63
2021/09/02 04:59:06;;;;;;;6.00;3.58;;;5.90;95.00;;;;;;2106159;28;20633;-63
2021/09/02 05:00:08;;;;;;;6.27;3.13;;;5.90;95.00;;;;;;2106374;28;20186;-62
2021/09/02 05:01:09;;;;;;;5.75;3.78;;;5.90;95.20;;;;;;2105709;28;20245;-63
2021/09/02 05:02:09;;;;;;;5.00;3.97;;;5.90;95.30;;;;;;2105693;28;20212;-61
2021/09/02 05:03:11;;;;;;;6.07;3.13;;;5.90;95.30;;;;;;2106421;28;20185;-63
2021/09/02 05:04:11;;;;;;;5.80;3.92;;;5.90;95.30;;;;;;2106373;28;20213;-63
2021/09/02 05:05:12;;;;;;;4.73;3.13;;;6.00;95.20;;;;;;2106367;28;20197;-63
2021/09/02 05:06:12;;;;;;;4.90;2.80;;;6.00;95.20;;;;;;2106345;28;20204;-62
2021/09/02 05:07:13;;;;;;;4.27;3.13;;;6.00;95.30;;;;;;2106340;28;20178;-63
2021/09/02 05:08:14;;;;;;;6.27;3.57;;;6.00;95.40;;;;;;2106402;28;20541;-62
2021/09/02 05:09:14;;;;;;;3.30;2.90;;;6.00;95.30;;;;;;2106089;28;20174;-63
2021/09/02 05:10:15;;;;;;;5.87;3.10;;;6.00;95.20;;;;;;2106382;28;20586;-63
2021/09/02 05:11:16;;;;;;;4.13;2.67;;;6.00;95.20;;;;;;2106162;28;20198;-62
2021/09/02 05:12:17;;;;;;;4.23;2.57;;;6.00;95.10;;;;;;2106385;28;20256;-63
2021/09/02 05:13:18;;;;;;;5.07;3.03;;;6.10;95.00;;;;;;2105650;28;20186;-62
2021/09/02 05:14:19;;;;;;;6.67;3.17;;;6.10;95.00;;;;;;2105785;28;20182;-63
2021/09/02 05:15:19;;;;;;;3.67;2.83;;;6.10;94.90;;;;;;2106295;28;20657;-62
2021/09/02 05:16:20;;;;;;;5.10;3.00;;;6.10;94.80;;;;;;2105751;28;20205;-62
2021/09/02 05:17:21;;;;;;;3.67;2.60;;;6.10;94.70;;;;;;2105639;28;20183;-62
2021/09/02 05:18:21;;;;;;;5.17;2.77;;;6.10;94.70;;;;;;2106194;28;20233;-62
2021/09/02 05:19:22;;;;;;;6.07;2.83;;;6.10;94.70;;;;;;2105944;28;20183;-62
2021/09/02 05:20:23;;;;;;;4.73;3.20;;;6.10;94.70;;;;;;2106345;28;20163;-62
2021/09/02 05:21:24;;;;;;;4.00;2.83;;;6.10;94.70;;;;;;2106167;28;20282;-62
2021/09/02 05:22:24;;;;;;;4.53;3.10;;;6.10;94.60;;;;;;2106230;28;20530;-62
2021/09/02 05:23:25;;;;;;;4.27;3.03;;;6.20;94.60;;;;;;2106165;28;20171;-63